Terminal Aerodrome Forecast
Issued by NWS Blacksburg, VA

Home | Current Version | Previous Version | Text Only | Print | Product List | Glossary On
Versions: 1 2 3 4 5 6 7 8 9 10 11 12 13 14 15 16 17 18 19 20 21 22 23 24
000
FTUS41 KRNK 131723
TAFROA
TAF
KROA 131723Z 1318/1418 29012G24KT P6SM BKN050
     FM140000 31010G18KT P6SM SCT035
     FM140600 30005KT P6SM SKC
     FM141200 25007KT P6SM SCT025 BKN250=

USA.gov is the U.S. government's official web portal to all federal, state and local government web resources and services.